Time;durP1;ratioP1;P1;durP2;ratioP2;P2;SDS_P1;SDS_P2;PMS_P1;PMS_P2;Temp;Humidity;BMP_temperature;BMP_pressure;BME280_temperature;BME280_humidity;BME280_pressure;Samples;Min_cycle;Max_cycle;Signal;HPM_P1;HPM_P2
2022/08/23 00:01:46;;;;;;;7.53;3.70;;;20.50;66.80;;;;;;4955941;28;20355;-76
2022/08/23 00:04:17;;;;;;;8.32;3.85;;;20.50;66.90;;;;;;4973891;28;20075;-77
2022/08/23 00:06:46;;;;;;;6.20;3.60;;;20.50;66.90;;;;;;4973910;28;20059;-76
2022/08/23 00:09:13;;;;;;;6.32;3.58;;;20.40;66.80;;;;;;4972500;28;20048;-76
2022/08/23 00:11:45;;;;;;;6.50;3.90;;;20.40;66.70;;;;;;4956092;28;20123;-77
2022/08/23 00:14:14;;;;;;;6.35;4.00;;;20.30;66.80;;;;;;4956278;28;20366;-77
2022/08/23 00:16:42;;;;;;;6.80;3.80;;;20.30;66.90;;;;;;4956486;28;20102;-77
2022/08/23 00:19:11;;;;;;;6.45;3.75;;;20.30;66.90;;;;;;4955869;28;20126;-77
2022/08/23 00:21:39;;;;;;;6.18;3.80;;;20.30;67.10;;;;;;4956086;28;20043;-76
2022/08/23 00:24:08;;;;;;;5.00;3.43;;;20.20;67.20;;;;;;4955509;28;20436;-77
2022/08/23 00:26:58;;;;;;;5.50;3.50;;;20.10;67.30;;;;;;4955458;28;20853;-76
2022/08/23 00:29:27;;;;;;;4.93;3.70;;;20.10;66.90;;;;;;4955819;28;20130;-77
2022/08/23 00:31:54;;;;;;;6.95;4.00;;;20.00;67.40;;;;;;4955800;28;20054;-76
2022/08/23 00:34:21;;;;;;;4.93;3.70;;;20.00;67.50;;;;;;4973578;28;20142;-76
2022/08/23 00:36:49;;;;;;;5.27;3.37;;;20.00;67.70;;;;;;4972040;28;20138;-76
2022/08/23 00:39:16;;;;;;;5.47;3.42;;;19.90;67.80;;;;;;4971279;28;20271;-76
2022/08/23 00:41:43;;;;;;;6.93;3.40;;;19.90;67.90;;;;;;4973536;28;20489;-76
2022/08/23 00:50:08;;;;;;;6.80;3.40;;;19.70;67.90;;;;;;4971679;28;20429;-76
2022/08/23 00:52:40;;;;;;;5.72;3.20;;;19.70;67.90;;;;;;4955503;28;20259;-76
2022/08/23 00:55:07;;;;;;;4.45;2.65;;;19.70;68.00;;;;;;4955320;28;20052;-76
2022/08/23 00:57:36;;;;;;;4.90;3.70;;;19.60;68.00;;;;;;4972090;28;20126;-76
2022/08/23 01:00:06;;;;;;;7.15;3.55;;;19.60;68.00;;;;;;4972544;28;20055;-76
2022/08/23 01:02:33;;;;;;;6.13;3.80;;;19.50;68.20;;;;;;4955482;28;20044;-76
2022/08/23 01:05:01;;;;;;;5.80;3.58;;;19.50;68.20;;;;;;4955464;28;20284;-76
2022/08/23 01:07:38;;;;;;;6.95;3.17;;;19.50;68.30;;;;;;4955405;28;20074;-76
2022/08/23 01:10:12;;;;;;;5.88;3.17;;;19.50;68.20;;;;;;4972685;28;20062;-76
2022/08/23 01:12:43;;;;;;;5.30;2.63;;;19.40;68.30;;;;;;4972774;28;20053;-77
2022/08/23 01:15:22;;;;;;;3.50;2.17;;;19.40;68.30;;;;;;4971417;28;20370;-76
2022/08/23 01:17:54;;;;;;;4.25;2.35;;;19.40;68.00;;;;;;4971547;28;20252;-77
2022/08/23 01:20:23;;;;;;;5.75;2.50;;;19.40;67.90;;;;;;4955134;28;20056;-76
2022/08/23 01:22:57;;;;;;;5.20;2.38;;;19.40;67.70;;;;;;4954734;28;20051;-76
2022/08/23 01:25:28;;;;;;;5.93;2.55;;;19.40;67.80;;;;;;4954814;28;20139;-76
2022/08/23 01:27:56;;;;;;;6.03;2.70;;;19.30;67.80;;;;;;4971383;28;20146;-76
2022/08/23 01:30:26;;;;;;;5.60;2.40;;;19.30;67.80;;;;;;4954841;28;20763;-76
2022/08/23 01:32:57;;;;;;;4.43;2.50;;;19.30;67.80;;;;;;4955047;28;20434;-76
2022/08/23 01:35:31;;;;;;;7.82;2.92;;;19.30;67.80;;;;;;4954383;28;20057;-76
2022/08/23 01:37:58;;;;;;;4.07;2.53;;;19.20;67.80;;;;;;4938856;28;20051;-76
2022/08/23 01:40:28;;;;;;;5.30;2.63;;;19.20;67.70;;;;;;4954620;28;20142;-76
2022/08/23 01:42:55;;;;;;;3.90;1.70;;;19.20;68.00;;;;;;4954694;28;20746;-77
2022/08/23 01:45:22;;;;;;;3.88;1.90;;;19.20;68.10;;;;;;4954700;28;20043;-76
2022/08/23 01:47:49;;;;;;;5.35;2.50;;;19.10;68.00;;;;;;4954767;28;20055;-77
2022/08/23 01:50:17;;;;;;;5.18;2.90;;;19.10;67.80;;;;;;4954377;28;20484;-77
2022/08/23 01:52:44;;;;;;;5.30;2.60;;;19.10;68.00;;;;;;4954951;28;20063;-77
2022/08/23 01:55:12;;;;;;;3.67;2.22;;;19.00;68.30;;;;;;4954655;28;20307;-76
2022/08/23 01:57:43;;;;;;;4.43;2.50;;;19.00;68.50;;;;;;4954553;28;20067;-76
2022/08/23 02:00:11;;;;;;;4.05;2.70;;;19.00;68.50;;;;;;4954178;28;20051;-76
2022/08/23 02:02:42;;;;;;;5.22;3.03;;;18.90;68.60;;;;;;4954642;28;20134;-76
2022/08/23 02:05:09;;;;;;;5.60;3.00;;;18.80;68.80;;;;;;4954594;28;20047;-77
2022/08/23 02:07:37;;;;;;;4.03;2.25;;;18.80;69.00;;;;;;4970528;28;20255;-77
2022/08/23 02:10:07;;;;;;;4.28;2.30;;;18.80;69.20;;;;;;4954245;28;20054;-76
2022/08/23 02:12:36;;;;;;;5.15;2.10;;;18.70;69.30;;;;;;4954301;28;20127;-77
2022/08/23 02:15:14;;;;;;;4.00;2.50;;;18.70;69.40;;;;;;4954452;28;20457;-77
2022/08/23 02:17:44;;;;;;;7.83;3.70;;;18.60;69.40;;;;;;4954306;28;20051;-77
2022/08/23 02:20:13;;;;;;;8.05;4.38;;;18.60;69.40;;;;;;4971519;28;20260;-77
2022/08/23 02:22:40;;;;;;;6.07;4.07;;;18.60;69.30;;;;;;4954294;28;20047;-76
2022/08/23 02:25:08;;;;;;;5.60;3.92;;;18.60;69.30;;;;;;4970517;28;20059;-77
2022/08/23 02:27:35;;;;;;;5.72;3.90;;;18.60;69.30;;;;;;4970263;28;20146;-77
2022/08/23 02:30:03;;;;;;;7.27;4.50;;;18.50;69.40;;;;;;4954245;28;20062;-77
2022/08/23 02:32:32;;;;;;;7.53;4.70;;;18.50;69.50;;;;;;4954118;28;20267;-76
2022/08/23 02:34:59;;;;;;;7.60;3.92;;;18.50;69.50;;;;;;4954364;28;20529;-76
2022/08/23 02:37:26;;;;;;;5.35;3.90;;;18.50;69.40;;;;;;4953825;28;20677;-77
2022/08/23 02:39:53;;;;;;;7.05;3.83;;;18.50;69.30;;;;;;4954188;28;20055;-77
2022/08/23 02:42:20;;;;;;;8.40;3.73;;;18.50;69.30;;;;;;4970267;28;20134;-77
2022/08/23 02:44:47;;;;;;;6.60;3.20;;;18.50;69.30;;;;;;4970337;28;20291;-77
2022/08/23 02:47:14;;;;;;;7.55;3.55;;;18.50;69.20;;;;;;4953790;28;20059;-77
2022/08/23 02:49:52;;;;;;;5.95;2.70;;;18.40;69.20;;;;;;4956776;28;20517;-77
2022/08/23 02:52:19;;;;;;;3.83;2.15;;;18.40;69.10;;;;;;4973247;28;20524;-76
2022/08/23 02:54:46;;;;;;;4.83;1.73;;;18.40;69.00;;;;;;4957540;28;20051;-77
2022/08/23 02:57:13;;;;;;;4.28;1.75;;;18.40;69.10;;;;;;4957567;28;20260;-76
2022/08/23 02:59:41;;;;;;;3.53;1.60;;;18.30;69.10;;;;;;4956895;28;20043;-77
2022/08/23 03:02:08;;;;;;;3.90;1.50;;;18.20;69.20;;;;;;4957280;28;20463;-77
2022/08/23 03:04:40;;;;;;;4.82;2.08;;;18.20;69.40;;;;;;4973197;28;20077;-77
2022/08/23 03:07:08;;;;;;;4.63;2.43;;;18.10;69.70;;;;;;4957042;28;20043;-77
2022/08/23 03:09:36;;;;;;;4.68;2.30;;;18.10;69.80;;;;;;4973569;28;20264;-76
2022/08/23 03:12:04;;;;;;;4.47;2.15;;;18.10;69.90;;;;;;4974434;28;20438;-77
2022/08/23 03:14:36;;;;;;;3.60;2.20;;;18.00;70.10;;;;;;4957604;28;20053;-77
2022/08/23 03:17:04;;;;;;;4.22;2.40;;;18.00;70.20;;;;;;4957137;28;20057;-76
2022/08/23 03:19:31;;;;;;;3.90;2.40;;;18.00;70.10;;;;;;4973988;28;20143;-77
2022/08/23 03:21:58;;;;;;;5.18;2.63;;;18.00;69.90;;;;;;4973596;28;20259;-77
2022/08/23 03:24:26;;;;;;;4.82;2.60;;;17.90;69.90;;;;;;4957160;28;20080;-77
2022/08/23 03:26:53;;;;;;;4.47;2.33;;;17.80;70.20;;;;;;4973119;28;20074;-77
2022/08/23 03:29:20;;;;;;;5.85;3.10;;;17.80;70.40;;;;;;4973166;28;20055;-77
2022/08/23 03:31:59;;;;;;;4.97;2.80;;;17.80;70.50;;;;;;4956982;28;20055;-77
2022/08/23 03:34:26;;;;;;;6.57;2.88;;;17.70;70.70;;;;;;4956611;28;20773;-77
2022/08/23 03:37:13;;;;;;;4.88;2.70;;;17.60;70.80;;;;;;4973424;28;20062;-77
2022/08/23 03:39:41;;;;;;;3.85;2.30;;;17.60;70.90;;;;;;4972820;28;20588;-77
2022/08/23 03:42:09;;;;;;;4.85;2.90;;;17.60;71.10;;;;;;4956679;28;20418;-77
2022/08/23 03:44:36;;;;;;;6.37;3.00;;;17.60;71.10;;;;;;4972962;28;20580;-76
2022/08/23 03:47:04;;;;;;;6.20;3.60;;;17.50;71.00;;;;;;4973256;28;20739;-77
2022/08/23 03:49:31;;;;;;;6.65;3.42;;;17.50;71.10;;;;;;4956508;28;20579;-77
2022/08/23 03:51:59;;;;;;;6.22;3.72;;;17.50;71.40;;;;;;4972852;28;20110;-77
2022/08/23 03:54:26;;;;;;;7.07;3.63;;;17.40;71.60;;;;;;4972875;28;20178;-76
2022/08/23 03:56:59;;;;;;;4.90;2.87;;;17.40;71.90;;;;;;4956273;28;20054;-77
2022/08/23 03:59:27;;;;;;;4.82;2.90;;;17.30;71.80;;;;;;4955989;28;20259;-77
2022/08/23 04:01:54;;;;;;;5.15;3.10;;;17.30;71.80;;;;;;4956352;28;20593;-77
2022/08/23 04:04:21;;;;;;;4.93;2.95;;;17.20;71.80;;;;;;4974007;28;20199;-77
2022/08/23 04:07:08;;;;;;;4.50;2.72;;;17.20;71.70;;;;;;4956031;28;20051;-77
2022/08/23 04:09:36;;;;;;;4.97;2.50;;;17.20;71.70;;;;;;4955893;28;20485;-77
2022/08/23 04:12:06;;;;;;;4.35;2.65;;;17.20;71.70;;;;;;4955944;28;20254;-77
2022/08/23 04:14:35;;;;;;;4.95;2.80;;;17.30;72.00;;;;;;4972191;28;20059;-77
2022/08/23 04:17:02;;;;;;;4.10;2.25;;;17.30;72.00;;;;;;4972473;28;20131;-77
2022/08/23 04:19:30;;;;;;;4.55;2.50;;;17.30;72.20;;;;;;4955582;28;20055;-77
2022/08/23 04:22:03;;;;;;;3.80;2.07;;;17.30;72.30;;;;;;4956036;28;20127;-77
2022/08/23 04:24:38;;;;;;;3.40;1.70;;;17.20;72.30;;;;;;4956197;28;21045;-77
2022/08/23 04:27:07;;;;;;;4.40;1.83;;;17.20;72.30;;;;;;4956025;28;20051;-77
2022/08/23 04:29:34;;;;;;;4.15;1.70;;;17.20;72.30;;;;;;4972091;28;20062;-77
2022/08/23 04:32:02;;;;;;;4.80;2.10;;;17.20;72.30;;;;;;4972380;28;20055;-77
2022/08/23 04:34:31;;;;;;;4.40;2.30;;;17.20;72.40;;;;;;4971473;28;20047;-77
2022/08/23 04:36:58;;;;;;;3.92;1.98;;;17.20;72.40;;;;;;4972479;28;20255;-77
2022/08/23 04:39:25;;;;;;;4.82;2.30;;;17.20;72.30;;;;;;4972040;28;20091;-77
2022/08/23 04:44:39;;;;;;;3.38;1.80;;;17.20;72.20;;;;;;4971878;28;20062;-77
2022/08/23 04:47:07;;;;;;;3.27;1.60;;;17.20;72.00;;;;;;4971778;28;20051;-77
2022/08/23 04:49:34;;;;;;;3.22;1.52;;;17.20;72.00;;;;;;4971469;28;20306;-77
2022/08/23 04:52:02;;;;;;;3.72;1.70;;;17.20;72.10;;;;;;4955458;28;20039;-77
2022/08/23 04:54:30;;;;;;;3.72;1.50;;;17.20;72.10;;;;;;4955711;28;20055;-77
2022/08/23 04:57:18;;;;;;;5.10;1.42;;;17.20;72.10;;;;;;4955768;28;20413;-77
2022/08/23 04:59:49;;;;;;;3.00;1.40;;;17.20;72.10;;;;;;4955432;28;20553;-77
2022/08/23 05:02:17;;;;;;;3.38;1.40;;;17.20;72.10;;;;;;4971794;28;20260;-77
2022/08/23 05:04:44;;;;;;;3.90;1.50;;;17.20;72.10;;;;;;4955461;28;20048;-77
2022/08/23 05:07:12;;;;;;;3.10;1.60;;;17.20;72.20;;;;;;4972190;28;20059;-77
2022/08/23 05:09:39;;;;;;;3.50;1.50;;;17.20;72.20;;;;;;4939259;28;20537;-77
2022/08/23 05:12:06;;;;;;;3.00;1.47;;;17.10;72.30;;;;;;4954794;28;20138;-77
2022/08/23 05:14:35;;;;;;;5.57;1.50;;;17.10;72.50;;;;;;4971514;28;20290;-77
2022/08/23 05:17:04;;;;;;;4.63;1.45;;;17.00;72.70;;;;;;4955584;28;20054;-77
2022/08/23 05:19:35;;;;;;;3.00;1.45;;;17.00;72.70;;;;;;4955129;28;20047;-78
2022/08/23 05:22:02;;;;;;;3.75;1.60;;;17.00;72.70;;;;;;4972860;28;20106;-78
2022/08/23 05:24:49;;;;;;;3.53;1.80;;;17.00;72.90;;;;;;4955411;28;20058;-77
2022/08/23 05:27:16;;;;;;;4.72;1.60;;;17.00;73.10;;;;;;4955549;28;20774;-78
2022/08/23 05:29:43;;;;;;;4.03;1.92;;;17.00;73.30;;;;;;4955342;28;20095;-77
2022/08/23 05:32:11;;;;;;;7.18;2.05;;;17.00;73.40;;;;;;4955094;28;20052;-77
2022/08/23 05:34:38;;;;;;;4.45;2.10;;;17.00;73.60;;;;;;4955198;28;20083;-78
2022/08/23 05:37:10;;;;;;;3.73;2.10;;;17.00;73.50;;;;;;4971687;28;20062;-78
2022/08/23 05:39:40;;;;;;;5.43;3.30;;;17.00;73.40;;;;;;4954814;28;20362;-78
2022/08/23 05:42:11;;;;;;;7.63;4.30;;;17.00;73.60;;;;;;4955394;28;20047;-78
2022/08/23 05:44:39;;;;;;;9.25;5.38;;;17.00;74.00;;;;;;4971457;28;20044;-78
2022/08/23 05:47:12;;;;;;;10.45;6.63;;;17.00;74.20;;;;;;4955487;28;20051;-78
2022/08/23 05:50:00;;;;;;;10.60;7.67;;;17.00;74.60;;;;;;4970850;28;20426;-78
2022/08/23 05:52:31;;;;;;;13.77;9.27;;;17.00;74.20;;;;;;4971153;28;20260;-78
2022/08/23 05:54:58;;;;;;;12.10;8.55;;;17.00;74.70;;;;;;4970740;28;20122;-78
2022/08/23 05:57:45;;;;;;;13.05;8.05;;;17.00;74.40;;;;;;4947309;28;20600;-78
2022/08/23 06:00:14;;;;;;;10.20;7.28;;;17.00;74.30;;;;;;4954840;28;20502;-78
2022/08/23 06:02:49;;;;;;;11.43;7.77;;;17.00;74.50;;;;;;4970937;28;20050;-78
2022/08/23 06:05:18;;;;;;;10.75;7.95;;;17.00;74.70;;;;;;4970913;28;20755;-78
2022/08/23 06:07:46;;;;;;;10.85;8.05;;;17.00;74.90;;;;;;4954882;28;20126;-79
2022/08/23 06:10:13;;;;;;;13.75;9.48;;;17.00;75.10;;;;;;4970855;28;20054;-79
2022/08/23 06:12:43;;;;;;;13.15;9.95;;;17.00;75.70;;;;;;4954956;28;20089;-78
2022/08/23 06:15:11;;;;;;;13.47;10.60;;;17.00;75.70;;;;;;4954782;28;20058;-78
2022/08/23 06:17:38;;;;;;;15.68;11.27;;;17.10;76.20;;;;;;4970971;28;20278;-78
2022/08/23 06:20:07;;;;;;;15.07;11.35;;;17.10;76.20;;;;;;4954708;28;20130;-78
2022/08/23 06:22:38;;;;;;;16.02;10.50;;;17.20;77.10;;;;;;4954711;28;20078;-78
2022/08/23 06:25:06;;;;;;;14.77;11.30;;;17.20;77.50;;;;;;4954407;28;20052;-78
2022/08/23 06:27:46;;;;;;;15.63;11.70;;;17.20;77.10;;;;;;4954733;28;20196;-79
2022/08/23 06:30:13;;;;;;;16.52;11.23;;;17.20;78.20;;;;;;4970328;28;20267;-78
2022/08/23 06:32:46;;;;;;;15.25;11.18;;;17.30;77.90;;;;;;4954520;28;20058;-78
2022/08/23 06:35:38;;;;;;;15.18;11.88;;;17.30;77.70;;;;;;4960967;28;20612;-78
2022/08/23 06:38:11;;;;;;;16.08;11.30;;;17.40;78.50;;;;;;4954518;28;20154;-79
2022/08/23 06:40:50;;;;;;;14.63;11.20;;;17.40;78.50;;;;;;4970059;28;20066;-78
2022/08/23 06:43:26;;;;;;;14.77;10.77;;;17.50;78.80;;;;;;4970878;28;20339;-78
2022/08/23 06:46:11;;;;;;;15.95;12.00;;;17.50;78.90;;;;;;4970732;28;20063;-78
2022/08/23 06:48:38;;;;;;;15.60;11.55;;;17.50;79.10;;;;;;4954122;28;20054;-78
2022/08/23 06:51:12;;;;;;;15.90;12.38;;;17.50;79.00;;;;;;4971677;28;20097;-78
2022/08/23 06:53:52;;;;;;;15.60;11.80;;;17.60;79.40;;;;;;4954158;28;20052;-79
2022/08/23 06:56:39;;;;;;;14.05;11.70;;;17.70;79.40;;;;;;4953868;28;20343;-79
2022/08/23 06:59:12;;;;;;;13.30;11.00;;;17.80;79.60;;;;;;4954150;28;20047;-78
2022/08/23 07:02:13;;;;;;;13.40;10.98;;;17.80;79.60;;;;;;4934993;28;20048;-78
2022/08/23 07:05:02;;;;;;;12.98;10.73;;;17.90;79.70;;;;;;4954025;28;20054;-78
2022/08/23 07:07:38;;;;;;;12.93;10.40;;;18.00;79.50;;;;;;4953763;28;20062;-79
2022/08/23 07:10:07;;;;;;;19.02;11.00;;;18.10;79.00;;;;;;4969793;28;20255;-78
2022/08/23 07:12:39;;;;;;;15.48;10.82;;;18.10;78.90;;;;;;4954028;28;20517;-78
2022/08/23 07:15:07;;;;;;;14.27;10.63;;;18.20;78.70;;;;;;4953891;28;20674;-78
2022/08/23 07:17:34;;;;;;;13.43;10.00;;;18.30;78.50;;;;;;4970080;28;20584;-78
2022/08/23 07:20:01;;;;;;;13.73;10.37;;;18.30;78.20;;;;;;4953724;28;20136;-79
2022/08/23 07:22:28;;;;;;;12.20;9.68;;;18.40;78.10;;;;;;4970080;28;20376;-78
2022/08/23 07:24:57;;;;;;;17.63;10.57;;;18.50;78.00;;;;;;4953969;28;20606;-78
2022/08/23 07:27:24;;;;;;;12.68;9.57;;;18.50;78.00;;;;;;4969607;28;20183;-78
2022/08/23 07:30:10;;;;;;;10.75;9.57;;;18.60;77.90;;;;;;4969736;28;20069;-78
2022/08/23 07:32:40;;;;;;;11.70;9.80;;;18.70;77.50;;;;;;4953886;28;20059;-78
2022/08/23 07:35:27;;;;;;;13.00;9.80;;;18.70;77.20;;;;;;4956168;28;20256;-78
2022/08/23 07:37:56;;;;;;;14.57;9.95;;;18.70;77.20;;;;;;4972954;28;20160;-78
2022/08/23 07:40:27;;;;;;;11.77;9.45;;;18.80;77.20;;;;;;4972682;28;20142;-78
2022/08/23 07:42:57;;;;;;;12.23;9.30;;;18.80;77.10;;;;;;4956968;28;20261;-78
2022/08/23 07:45:24;;;;;;;12.67;9.53;;;18.90;77.10;;;;;;4973077;28;20054;-78
2022/08/23 07:47:55;;;;;;;12.98;9.90;;;18.90;77.30;;;;;;4956949;28;20821;-78
2022/08/23 07:50:25;;;;;;;12.00;10.20;;;18.90;77.20;;;;;;4956247;28;20494;-78
2022/08/23 07:52:53;;;;;;;10.95;9.77;;;19.00;77.00;;;;;;4956577;28;20059;-78
2022/08/23 07:55:20;;;;;;;14.30;10.43;;;19.10;77.10;;;;;;4972024;28;20187;-78
2022/08/23 07:58:07;;;;;;;12.80;9.80;;;19.10;76.90;;;;;;4974629;28;20066;-78
2022/08/23 08:01:10;;;;;;;12.00;9.98;;;19.20;76.70;;;;;;4972715;28;20294;-78
2022/08/23 08:03:44;;;;;;;11.27;9.15;;;19.30;76.40;;;;;;4972853;28;20106;-78
2022/08/23 08:06:25;;;;;;;12.60;9.68;;;19.30;76.50;;;;;;4973016;28;20051;-78
2022/08/23 08:08:55;;;;;;;12.82;9.27;;;19.40;76.20;;;;;;4972313;28;20086;-78
2022/08/23 08:11:24;;;;;;;11.47;9.50;;;19.50;76.00;;;;;;4972515;28;20051;-78
2022/08/23 08:13:53;;;;;;;10.38;8.90;;;19.50;75.70;;;;;;4972755;28;20738;-78
2022/08/23 08:16:25;;;;;;;11.07;8.65;;;19.50;75.30;;;;;;4972584;28;20159;-78
2022/08/23 08:18:53;;;;;;;12.30;8.70;;;19.70;75.10;;;;;;4972649;28;20055;-78
2022/08/23 08:21:41;;;;;;;11.38;9.32;;;19.70;75.00;;;;;;4955868;28;20058;-78
2022/08/23 08:24:18;;;;;;;11.73;8.43;;;19.80;75.10;;;;;;4972641;28;20676;-78
2022/08/23 08:26:51;;;;;;;12.65;8.88;;;19.90;75.10;;;;;;4972191;28;20694;-78
2022/08/23 08:29:19;;;;;;;11.15;8.45;;;20.00;75.00;;;;;;4971805;28;20498;-78
2022/08/23 08:31:47;;;;;;;11.63;8.15;;;20.00;75.00;;;;;;4956123;28;20141;-78
2022/08/23 08:34:14;;;;;;;10.27;8.82;;;20.10;74.90;;;;;;4955711;28;20498;-77
2022/08/23 08:36:44;;;;;;;10.10;8.20;;;20.10;74.60;;;;;;4955979;28;20592;-78
2022/08/23 08:39:18;;;;;;;10.20;8.23;;;20.30;74.50;;;;;;4955768;28;20650;-78
2022/08/23 08:41:54;;;;;;;12.27;8.85;;;20.30;74.60;;;;;;4971732;28;20582;-78
2022/08/23 08:44:32;;;;;;;9.38;7.43;;;20.30;74.70;;;;;;4939822;28;20130;-78
2022/08/23 08:47:00;;;;;;;10.52;7.00;;;20.50;74.30;;;;;;4954659;28;20536;-78
2022/08/23 08:49:35;;;;;;;8.97;7.63;;;20.50;73.90;;;;;;4955708;28;20047;-78
2022/08/23 08:52:11;;;;;;;10.70;7.68;;;20.60;73.60;;;;;;4956321;28;20267;-78
2022/08/23 08:54:40;;;;;;;10.45;7.43;;;20.60;73.30;;;;;;4955371;28;20062;-78
2022/08/23 08:57:11;;;;;;;10.90;7.32;;;20.70;73.00;;;;;;4955626;28;20059;-78
2022/08/23 08:59:52;;;;;;;9.55;7.25;;;20.80;73.00;;;;;;4955717;28;20059;-77
2022/08/23 09:02:23;;;;;;;12.03;7.87;;;20.80;72.70;;;;;;4955880;28;20496;-78
2022/08/23 09:04:50;;;;;;;9.82;7.45;;;20.90;72.50;;;;;;4955650;28;20674;-78
2022/08/23 09:07:25;;;;;;;10.95;6.68;;;21.00;72.20;;;;;;4955494;28;20430;-78
2022/08/23 09:10:15;;;;;;;9.77;6.45;;;21.10;72.20;;;;;;4955244;28;20506;-78
2022/08/23 09:13:07;;;;;;;10.15;7.25;;;21.10;72.70;;;;;;4971631;28;20110;-78
2022/08/23 09:15:44;;;;;;;11.73;7.13;;;21.30;72.50;;;;;;4955190;28;20081;-77
2022/08/23 09:18:14;;;;;;;8.15;6.25;;;21.40;72.10;;;;;;4955191;28;20248;-78
2022/08/23 09:20:52;;;;;;;8.27;5.18;;;21.50;71.60;;;;;;4955070;28;20540;-78
2022/08/23 09:23:22;;;;;;;9.00;6.00;;;21.50;70.50;;;;;;4971351;28;20502;-78
2022/08/23 09:25:52;;;;;;;9.60;6.00;;;21.70;70.20;;;;;;4955429;28;20131;-78
2022/08/23 09:28:23;;;;;;;9.17;6.03;;;21.70;69.80;;;;;;4954914;28;20050;-78
2022/08/23 09:30:55;;;;;;;7.22;4.70;;;21.90;69.20;;;;;;4972028;28;20713;-78
2022/08/23 09:33:27;;;;;;;6.78;4.97;;;21.90;68.70;;;;;;4954866;28;20063;-77
2022/08/23 09:36:15;;;;;;;8.30;5.03;;;21.90;68.30;;;;;;4955008;28;20502;-77
2022/08/23 09:38:52;;;;;;;8.32;5.13;;;22.00;68.10;;;;;;4954986;28;20050;-78
2022/08/23 09:41:26;;;;;;;9.17;5.33;;;22.10;68.40;;;;;;4971113;28;20059;-78
2022/08/23 09:43:57;;;;;;;8.18;5.57;;;22.20;67.30;;;;;;4970929;28;20252;-78
2022/08/23 09:46:30;;;;;;;10.77;6.30;;;22.20;66.90;;;;;;4954931;28;20047;-78
2022/08/23 09:49:00;;;;;;;7.28;5.57;;;22.30;66.90;;;;;;4954655;28;20048;-78
2022/08/23 09:51:35;;;;;;;7.10;4.70;;;22.50;66.80;;;;;;4972730;28;20066;-78
2022/08/23 09:54:10;;;;;;;7.83;5.00;;;22.50;66.90;;;;;;4954619;28;20055;-77
2022/08/23 09:56:40;;;;;;;7.15;4.95;;;22.50;67.00;;;;;;4954340;28;20256;-78
2022/08/23 09:59:22;;;;;;;6.40;4.60;;;22.60;66.70;;;;;;4954488;28;20055;-78
2022/08/23 10:01:52;;;;;;;7.28;4.22;;;22.70;66.80;;;;;;4970712;28;20110;-78
2022/08/23 10:04:24;;;;;;;7.47;4.70;;;22.80;66.60;;;;;;4970863;28;20074;-78
2022/08/23 10:06:52;;;;;;;7.37;5.03;;;23.00;66.00;;;;;;4954418;28;20690;-77
2022/08/23 10:09:26;;;;;;;8.02;4.63;;;23.10;64.80;;;;;;4954331;28;20343;-78
2022/08/23 10:11:55;;;;;;;8.40;4.82;;;23.20;64.90;;;;;;4954324;28;20052;-78
2022/08/23 10:14:23;;;;;;;7.65;4.55;;;23.30;64.70;;;;;;4954380;28;20530;-78
2022/08/23 10:17:03;;;;;;;6.60;4.60;;;23.40;64.20;;;;;;4953847;28;20083;-78
2022/08/23 10:19:41;;;;;;;8.80;4.30;;;23.50;64.50;;;;;;4970563;28;20126;-78
2022/08/23 10:22:18;;;;;;;7.43;4.60;;;23.60;64.60;;;;;;4970737;28;20342;-78
2022/08/23 10:25:07;;;;;;;6.68;4.35;;;23.70;63.80;;;;;;4954366;28;20117;-78
2022/08/23 10:30:36;;;;;;;7.70;4.88;;;24.00;63.30;;;;;;4953691;28;20048;-78
2022/08/23 10:33:13;;;;;;;7.83;4.70;;;24.20;62.30;;;;;;4954199;28;20150;-78
2022/08/23 10:35:52;;;;;;;7.25;4.38;;;24.20;61.80;;;;;;4954412;28;20244;-77
2022/08/23 10:38:37;;;;;;;7.93;4.47;;;24.40;61.60;;;;;;4970767;28;20110;-78
2022/08/23 10:41:21;;;;;;;9.20;4.90;;;24.40;61.70;;;;;;4969891;28;20142;-78
2022/08/23 10:43:56;;;;;;;7.22;4.75;;;24.50;61.10;;;;;;4970068;28;20055;-78
2022/08/23 10:46:23;;;;;;;8.53;5.10;;;24.60;60.80;;;;;;4970344;28;20083;-78
2022/08/23 10:48:55;;;;;;;9.10;5.25;;;24.70;60.10;;;;;;4953835;28;20279;-78
2022/08/23 10:51:28;;;;;;;9.43;5.30;;;24.80;59.30;;;;;;4954286;28;20055;-78
2022/08/23 10:53:59;;;;;;;9.20;5.25;;;24.90;58.70;;;;;;4953936;28;20136;-78
2022/08/23 10:56:28;;;;;;;9.25;5.40;;;25.00;58.60;;;;;;4969988;28;20058;-78
2022/08/23 10:59:00;;;;;;;7.20;4.80;;;25.00;59.20;;;;;;4953619;28;20522;-78
2022/08/23 11:01:37;;;;;;;7.75;4.40;;;25.00;59.40;;;;;;4970139;28;20271;-78
2022/08/23 11:04:08;;;;;;;8.07;4.95;;;25.20;59.30;;;;;;4953707;28;20047;-78
2022/08/23 11:06:57;;;;;;;6.72;3.97;;;25.30;58.80;;;;;;4954008;28;20488;-78
2022/08/23 11:09:48;;;;;;;8.05;4.90;;;25.40;58.70;;;;;;4954870;28;20505;-78
2022/08/23 11:12:25;;;;;;;6.93;4.50;;;25.50;58.50;;;;;;4957201;28;20421;-78
2022/08/23 11:15:11;;;;;;;6.00;3.63;;;25.60;57.90;;;;;;4956982;28;20283;-78
2022/08/23 11:17:57;;;;;;;8.45;4.25;;;25.70;58.20;;;;;;4957039;28;20047;-78
2022/08/23 11:21:03;;;;;;;7.53;3.90;;;25.80;57.50;;;;;;4973107;28;20059;-78
2022/08/23 11:23:44;;;;;;;8.18;3.53;;;25.90;57.60;;;;;;4956972;28;20473;-78
2022/08/23 11:27:04;;;;;;;6.67;3.83;;;26.00;56.50;;;;;;4957298;28;20093;-78
2022/08/23 11:29:39;;;;;;;5.38;3.95;;;26.00;55.70;;;;;;4957005;28;20315;-78
2022/08/23 11:32:33;;;;;;;7.75;4.13;;;26.10;55.90;;;;;;4957234;28;20070;-78
2022/08/23 11:35:07;;;;;;;8.43;4.05;;;26.20;55.70;;;;;;4956498;28;20058;-78
2022/08/23 11:37:56;;;;;;;8.98;5.13;;;26.30;55.20;;;;;;4973061;28;20058;-78
2022/08/23 11:41:05;;;;;;;7.10;4.80;;;26.40;55.10;;;;;;4956329;28;20055;-78
2022/08/23 11:43:36;;;;;;;9.70;4.50;;;26.40;55.30;;;;;;4956691;28;20311;-78
2022/08/23 11:46:30;;;;;;;6.60;4.05;;;26.40;55.50;;;;;;4956816;28;20043;-78
2022/08/23 11:49:35;;;;;;;6.38;4.63;;;26.50;56.30;;;;;;4956649;28;20059;-78
2022/08/23 11:52:11;;;;;;;8.20;4.10;;;26.60;55.70;;;;;;4956351;28;20130;-78
2022/08/23 11:54:55;;;;;;;6.97;4.20;;;26.70;55.80;;;;;;4974175;28;20059;-78
2022/08/23 11:57:43;;;;;;;7.82;4.90;;;26.80;56.20;;;;;;4974394;28;20259;-78
2022/08/23 12:00:19;;;;;;;5.88;4.03;;;26.90;55.70;;;;;;4973800;28;20059;-78
2022/08/23 12:03:01;;;;;;;7.30;3.70;;;27.10;54.70;;;;;;4974060;28;20052;-78
2022/08/23 12:06:01;;;;;;;7.07;3.70;;;27.20;54.10;;;;;;4956445;28;20055;-78
2022/08/23 12:08:45;;;;;;;6.00;3.70;;;27.30;54.10;;;;;;4956224;28;20130;-78
2022/08/23 12:11:13;;;;;;;6.93;4.35;;;27.40;53.20;;;;;;4956196;28;20916;-78
2022/08/23 12:13:54;;;;;;;6.68;3.78;;;27.50;52.90;;;;;;4973544;28;20051;-78
2022/08/23 12:16:41;;;;;;;7.13;3.45;;;27.60;53.20;;;;;;4973696;28;20057;-79
2022/08/23 12:19:26;;;;;;;6.70;3.20;;;27.70;52.30;;;;;;4968846;28;20054;-79
2022/08/23 12:21:56;;;;;;;6.53;3.27;;;27.80;51.60;;;;;;4956220;28;20536;-79
2022/08/23 12:24:28;;;;;;;7.68;3.30;;;27.90;51.30;;;;;;4955988;28;20248;-79
2022/08/23 12:27:02;;;;;;;6.55;3.50;;;28.00;51.70;;;;;;4955992;28;20135;-78
2022/08/23 12:29:42;;;;;;;8.32;3.60;;;28.10;51.50;;;;;;4971481;28;20138;-78
2022/08/23 12:32:15;;;;;;;7.25;3.70;;;28.20;51.40;;;;;;4955974;28;20047;-79
2022/08/23 12:34:53;;;;;;;5.57;2.80;;;28.30;49.70;;;;;;4973295;28;20513;-78
2022/08/23 12:37:30;;;;;;;8.68;3.50;;;28.30;49.30;;;;;;4973377;28;20282;-79
2022/08/23 12:40:00;;;;;;;7.78;3.40;;;28.50;49.00;;;;;;4971385;28;20433;-78
2022/08/23 12:42:30;;;;;;;6.00;3.25;;;28.50;48.30;;;;;;4973767;28;20456;-79
2022/08/23 12:45:06;;;;;;;6.97;3.15;;;28.50;48.30;;;;;;4972611;28;20138;-79
2022/08/23 12:47:33;;;;;;;6.10;3.40;;;28.60;48.80;;;;;;4955916;28;20051;-78
2022/08/23 12:50:08;;;;;;;6.93;3.20;;;28.60;48.00;;;;;;4955391;28;20258;-78
2022/08/23 12:52:36;;;;;;;6.28;3.40;;;28.70;48.00;;;;;;4973404;28;20055;-78
2022/08/23 12:55:12;;;;;;;6.68;3.30;;;28.70;47.50;;;;;;4972735;28;20142;-78
2022/08/23 12:57:41;;;;;;;5.68;3.08;;;28.70;47.80;;;;;;4956146;28;20051;-79
2022/08/23 13:00:18;;;;;;;5.80;3.20;;;28.60;47.50;;;;;;4955423;28;20130;-79
2022/08/23 13:02:52;;;;;;;10.20;3.40;;;28.70;47.60;;;;;;4955818;28;20339;-78
2022/08/23 13:05:30;;;;;;;4.75;2.55;;;28.60;47.80;;;;;;4955353;28;20059;-78
2022/08/23 13:07:57;;;;;;;5.30;2.80;;;28.60;47.50;;;;;;4955213;28;20058;-78
2022/08/23 13:10:25;;;;;;;5.75;2.90;;;28.60;46.20;;;;;;4955157;28;20040;-78
2022/08/23 13:12:52;;;;;;;6.37;3.10;;;28.60;46.00;;;;;;4972760;28;20051;-78
2022/08/23 13:15:41;;;;;;;6.47;3.20;;;28.50;45.50;;;;;;4972862;28;20307;-79
2022/08/23 13:18:08;;;;;;;6.00;2.88;;;28.50;46.30;;;;;;4973008;28;20056;-79
2022/08/23 13:20:36;;;;;;;6.63;3.13;;;28.40;45.70;;;;;;4972577;28;20150;-79
2022/08/23 13:23:06;;;;;;;6.25;3.03;;;28.40;45.60;;;;;;4972560;28;20055;-79
2022/08/23 13:25:36;;;;;;;5.97;3.40;;;28.40;45.70;;;;;;4955054;28;20067;-79